Time;durP1;ratioP1;P1;durP2;ratioP2;P2;SDS_P1;SDS_P2;PMS_P1;PMS_P2;Temp;Humidity;BMP_temperature;BMP_pressure;BME280_temperature;BME280_humidity;BME280_pressure;Samples;Min_cycle;Max_cycle;Signal;HPM_P1;HPM_P2
2022/06/29 00:01:59;;;;;;;4.40;3.85;;;;;;;;;;5056068;28;20373;-84
2022/06/29 00:04:25;;;;;;;4.00;3.70;;;;;;;;;;5052332;28;20374;-83
2022/06/29 00:06:51;;;;;;;3.97;3.70;;;;;;;;;;5052663;28;20503;-84
2022/06/29 00:09:17;;;;;;;4.30;4.10;;;;;;;;;;5062409;28;20428;-83
2022/06/29 00:11:43;;;;;;;4.15;3.95;;;;;;;;;;5059876;28;20392;-83
2022/06/29 00:14:09;;;;;;;3.97;3.67;;;;;;;;;;5052502;28;20744;-83
2022/06/29 00:16:35;;;;;;;5.15;4.10;;;;;;;;;;5071340;28;20392;-84
2022/06/29 00:19:01;;;;;;;4.10;3.80;;;;;;;;;;5072421;28;20499;-83
2022/06/29 00:21:27;;;;;;;4.17;3.87;;;;;;;;;;5071900;28;20481;-83
2022/06/29 00:23:53;;;;;;;4.55;4.05;;;;;;;;;;5072133;28;20372;-84
2022/06/29 00:26:19;;;;;;;4.20;3.90;;;;;;;;;;5072194;28;20371;-84
2022/06/29 00:28:45;;;;;;;4.22;4.00;;;;;;;;;;5071675;28;20760;-84
2022/06/29 00:31:11;;;;;;;4.10;3.72;;;;;;;;;;5056718;28;20382;-84
2022/06/29 00:33:37;;;;;;;4.00;3.70;;;;;;;;;;5052132;28;20842;-84
2022/06/29 00:36:04;;;;;;;4.47;4.07;;;;;;;;;;5050511;28;20480;-84
2022/06/29 00:38:30;;;;;;;4.30;3.90;;;;;;;;;;5051917;28;20419;-83
2022/06/29 00:40:56;;;;;;;4.40;4.00;;;;;;;;;;5051997;28;20377;-84
2022/06/29 00:43:23;;;;;;;4.10;3.80;;;;;;;;;;5051872;28;20855;-83
2022/06/29 00:45:50;;;;;;;3.85;3.60;;;;;;;;;;5051994;28;20392;-84
2022/06/29 00:48:17;;;;;;;4.22;3.92;;;;;;;;;;5051878;28;20493;-84
2022/06/29 00:50:43;;;;;;;3.80;3.60;;;;;;;;;;5051630;28;20929;-84
2022/06/29 00:53:10;;;;;;;4.10;3.80;;;;;;;;;;5052070;28;20385;-83
2022/06/29 00:55:37;;;;;;;4.47;4.03;;;;;;;;;;5051848;28;20373;-83
2022/06/29 00:58:05;;;;;;;3.63;3.42;;;;;;;;;;5051781;28;20373;-83
2022/06/29 01:00:31;;;;;;;4.30;4.00;;;;;;;;;;5058085;28;20389;-83
2022/06/29 01:02:59;;;;;;;4.07;3.80;;;;;;;;;;5058803;28;20868;-84
2022/06/29 01:05:26;;;;;;;4.13;3.50;;;;;;;;;;5054915;28;20859;-83
2022/06/29 01:07:52;;;;;;;3.78;3.58;;;;;;;;;;5051781;28;20409;-83
2022/06/29 01:10:19;;;;;;;3.92;3.72;;;;;;;;;;5051645;28;20381;-84
2022/06/29 01:12:48;;;;;;;4.35;4.05;;;;;;;;;;5051897;28;20384;-83
2022/06/29 01:15:14;;;;;;;4.00;3.70;;;;;;;;;;5059751;28;20771;-83
2022/06/29 01:17:41;;;;;;;4.20;3.90;;;;;;;;;;5071623;28;20438;-84
2022/06/29 01:20:08;;;;;;;4.22;3.92;;;;;;;;;;5071218;28;20896;-83
2022/06/29 01:22:34;;;;;;;4.15;3.92;;;;;;;;;;5071672;28;20392;-84
2022/06/29 01:25:00;;;;;;;5.22;4.78;;;;;;;;;;5071673;28;20426;-84
2022/06/29 01:27:26;;;;;;;5.17;4.87;;;;;;;;;;5071534;28;20457;-83
2022/06/29 01:29:52;;;;;;;4.78;4.38;;;;;;;;;;5067489;28;20452;-84
2022/06/29 01:32:20;;;;;;;4.20;3.90;;;;;;;;;;5051794;28;20738;-83
2022/06/29 01:34:46;;;;;;;4.40;4.13;;;;;;;;;;5071269;28;20445;-83
2022/06/29 01:37:12;;;;;;;4.30;3.90;;;;;;;;;;5079816;28;20855;-83
2022/06/29 01:39:38;;;;;;;3.65;3.40;;;;;;;;;;5062524;28;20413;-83
2022/06/29 01:42:05;;;;;;;4.13;3.85;;;;;;;;;;5054378;28;20378;-83
2022/06/29 01:44:31;;;;;;;4.22;3.92;;;;;;;;;;5055118;28;20389;-83
2022/06/29 01:46:57;;;;;;;4.53;4.22;;;;;;;;;;5076061;28;20379;-83
2022/06/29 01:49:23;;;;;;;4.23;3.93;;;;;;;;;;5074909;28;20421;-83
2022/06/29 01:51:50;;;;;;;4.30;4.00;;;;;;;;;;5074736;28;20744;-83
2022/06/29 01:54:16;;;;;;;5.10;4.70;;;;;;;;;;5075081;28;20384;-84
2022/06/29 01:56:42;;;;;;;4.85;4.45;;;;;;;;;;5074851;28;20391;-83
2022/06/29 01:59:08;;;;;;;4.90;4.57;;;;;;;;;;5074789;28;20396;-83
2022/06/29 02:01:35;;;;;;;4.80;4.40;;;;;;;;;;5061763;28;20378;-84
2022/06/29 02:04:01;;;;;;;4.85;4.47;;;;;;;;;;5053718;28;20396;-83
2022/06/29 02:06:27;;;;;;;5.30;4.80;;;;;;;;;;5054711;28;20385;-84
2022/06/29 02:08:53;;;;;;;4.53;4.15;;;;;;;;;;5054640;28;20377;-83
2022/06/29 02:11:19;;;;;;;6.10;4.50;;;;;;;;;;5054577;28;20378;-83
2022/06/29 02:13:46;;;;;;;4.60;4.20;;;;;;;;;;5062275;28;20376;-84
2022/06/29 02:16:12;;;;;;;4.38;4.00;;;;;;;;;;5070468;28;20770;-84
2022/06/29 02:18:38;;;;;;;4.57;4.28;;;;;;;;;;5074518;28;20410;-83
2022/06/29 02:21:04;;;;;;;4.72;4.43;;;;;;;;;;5074059;28;20403;-83
2022/06/29 02:23:30;;;;;;;4.53;4.23;;;;;;;;;;5072651;28;20403;-83
2022/06/29 02:25:56;;;;;;;4.53;4.28;;;;;;;;;;5071103;28;20399;-83
2022/06/29 02:28:22;;;;;;;5.22;4.72;;;;;;;;;;5072690;28;20463;-83
2022/06/29 02:36:17;;;;;;;5.20;4.80;;;;;;;;;;5074132;28;20394;-84
2022/06/29 02:38:43;;;;;;;5.55;5.05;;;;;;;;;;5074010;28;20403;-83
2022/06/29 02:41:09;;;;;;;5.43;4.93;;;;;;;;;;5072809;28;20930;-83
2022/06/29 02:43:37;;;;;;;4.88;4.38;;;;;;;;;;5072611;28;20396;-83
2022/06/29 02:46:03;;;;;;;4.80;4.43;;;;;;;;;;5074011;28;20372;-84
2022/06/29 02:48:29;;;;;;;4.68;4.38;;;;;;;;;;5073972;28;20422;-84
2022/06/29 02:50:55;;;;;;;4.57;4.30;;;;;;;;;;5073797;28;20376;-83
2022/06/29 02:53:21;;;;;;;5.03;4.63;;;;;;;;;;5072887;28;20434;-83
2022/06/29 02:55:47;;;;;;;4.60;4.30;;;;;;;;;;5074273;28;20387;-83
2022/06/29 02:58:13;;;;;;;4.82;4.53;;;;;;;;;;5073680;28;20375;-83
2022/06/29 03:00:39;;;;;;;4.20;4.00;;;;;;;;;;5073087;28;20363;-83
2022/06/29 03:03:05;;;;;;;5.20;4.80;;;;;;;;;;5062591;28;20471;-84
2022/06/29 03:05:31;;;;;;;4.38;4.00;;;;;;;;;;5053663;28;20843;-83
2022/06/29 03:07:57;;;;;;;4.85;4.32;;;;;;;;;;5053561;28;20388;-84
2022/06/29 03:10:23;;;;;;;4.53;4.22;;;;;;;;;;5053330;28;20388;-84
2022/06/29 03:12:49;;;;;;;4.57;4.18;;;;;;;;;;5053465;28;20847;-84
2022/06/29 03:15:15;;;;;;;4.30;3.97;;;;;;;;;;5061378;28;20379;-84
2022/06/29 03:17:41;;;;;;;4.38;4.07;;;;;;;;;;5071970;28;20387;-84
2022/06/29 03:20:07;;;;;;;4.30;3.93;;;;;;;;;;5071557;28;20408;-84
2022/06/29 03:22:33;;;;;;;4.30;3.88;;;;;;;;;;5073176;28;20394;-84
2022/06/29 03:24:59;;;;;;;4.28;3.97;;;;;;;;;;5073165;28;20387;-84
2022/06/29 03:27:25;;;;;;;4.80;4.40;;;;;;;;;;5073457;28;20398;-84
2022/06/29 03:29:51;;;;;;;4.47;4.18;;;;;;;;;;5081613;28;20799;-85
2022/06/29 03:32:17;;;;;;;4.75;4.45;;;;;;;;;;5070432;28;20860;-86
2022/06/29 03:34:43;;;;;;;5.28;4.88;;;;;;;;;;5073013;28;20429;-87
2022/06/29 03:37:09;;;;;;;4.90;4.57;;;;;;;;;;5071603;28;20376;-85
2022/06/29 03:39:36;;;;;;;5.40;5.00;;;;;;;;;;5085179;28;20462;-84
2022/06/29 03:42:02;;;;;;;5.68;5.28;;;;;;;;;;5058938;28;20375;-85
2022/06/29 03:44:28;;;;;;;5.27;4.87;;;;;;;;;;5075385;28;20398;-85
2022/06/29 03:46:54;;;;;;;5.63;5.10;;;;;;;;;;5072778;28;20383;-85
2022/06/29 03:49:20;;;;;;;5.97;4.85;;;;;;;;;;5072749;28;20372;-85
2022/06/29 03:51:46;;;;;;;5.15;4.75;;;;;;;;;;5072543;28;20380;-85
2022/06/29 03:54:12;;;;;;;4.82;4.53;;;;;;;;;;5072802;28;20376;-84
2022/06/29 03:56:38;;;;;;;5.47;4.88;;;;;;;;;;5072569;28;20890;-85
2022/06/29 03:59:04;;;;;;;4.85;4.45;;;;;;;;;;5072539;28;20485;-85
2022/06/29 04:01:30;;;;;;;4.50;4.20;;;;;;;;;;5072407;28;20798;-84
2022/06/29 04:03:56;;;;;;;4.80;4.23;;;;;;;;;;5072362;28;20391;-84
2022/06/29 04:06:22;;;;;;;4.93;4.35;;;;;;;;;;5072664;28;20384;-84
2022/06/29 04:08:48;;;;;;;5.82;4.95;;;;;;;;;;5071092;28;20884;-85
2022/06/29 04:13:59;;;;;;;4.68;4.38;;;;;;;;;;5072227;28;20394;-84
2022/06/29 04:16:25;;;;;;;4.82;4.47;;;;;;;;;;5071958;28;20384;-84
2022/06/29 04:18:51;;;;;;;4.65;4.30;;;;;;;;;;5072254;28;20489;-84
2022/06/29 04:21:17;;;;;;;5.20;4.80;;;;;;;;;;5071959;28;20487;-84
2022/06/29 04:23:43;;;;;;;5.32;4.93;;;;;;;;;;5072325;28;20745;-85
2022/06/29 04:26:08;;;;;;;4.77;4.47;;;;;;;;;;5072428;28;20909;-84
2022/06/29 04:28:34;;;;;;;5.10;4.70;;;;;;;;;;5072232;28;20462;-84
2022/06/29 04:31:02;;;;;;;5.80;5.40;;;;;;;;;;5069523;28;20395;-84
2022/06/29 04:33:28;;;;;;;6.77;6.27;;;;;;;;;;5058878;28;20376;-84
2022/06/29 04:35:54;;;;;;;6.47;6.07;;;;;;;;;;5071815;28;20380;-84
2022/06/29 04:38:20;;;;;;;6.85;6.35;;;;;;;;;;5054113;28;20389;-84
2022/06/29 04:40:46;;;;;;;6.85;6.35;;;;;;;;;;5051997;28;20426;-84
2022/06/29 04:43:12;;;;;;;7.50;6.53;;;;;;;;;;5062738;28;20379;-84
2022/06/29 04:48:22;;;;;;;6.97;6.38;;;;;;;;;;5071187;28;20799;-84
2022/06/29 04:50:48;;;;;;;7.03;6.32;;;;;;;;;;5068631;28;20375;-85
2022/06/29 04:53:14;;;;;;;7.20;6.60;;;;;;;;;;5069652;28;20376;-85
2022/06/29 04:55:40;;;;;;;7.05;6.55;;;;;;;;;;5063845;28;20390;-85
2022/06/29 04:58:06;;;;;;;6.83;6.30;;;;;;;;;;5068625;28;20423;-85
2022/06/29 05:00:32;;;;;;;7.03;6.45;;;;;;;;;;5071181;28;20452;-85
2022/06/29 05:02:58;;;;;;;7.47;6.88;;;;;;;;;;5071890;28;20387;-85
2022/06/29 05:05:24;;;;;;;6.90;6.40;;;;;;;;;;5071655;28;20730;-85
2022/06/29 05:07:50;;;;;;;6.33;5.93;;;;;;;;;;5071901;28;20822;-85
2022/06/29 05:10:16;;;;;;;6.45;5.85;;;;;;;;;;5071593;28;20411;-85
2022/06/29 05:12:42;;;;;;;6.10;5.60;;;;;;;;;;5071780;28;20380;-85
2022/06/29 05:15:09;;;;;;;5.72;5.22;;;;;;;;;;5071720;28;20722;-85
2022/06/29 05:17:39;;;;;;;5.82;5.30;;;;;;;;;;5076200;28;20738;-85
2022/06/29 05:20:06;;;;;;;5.72;5.25;;;;;;;;;;5075398;28;20425;-85
2022/06/29 05:22:32;;;;;;;5.75;5.20;;;;;;;;;;5078171;28;20412;-84
2022/06/29 05:24:58;;;;;;;6.03;5.50;;;;;;;;;;5075045;28;20868;-84
2022/06/29 05:27:24;;;;;;;8.80;7.28;;;;;;;;;;5074311;28;20383;-84
2022/06/29 05:29:50;;;;;;;6.55;5.95;;;;;;;;;;5075239;28;20387;-85
2022/06/29 05:32:16;;;;;;;7.20;6.70;;;;;;;;;;5074875;28;20934;-85
2022/06/29 05:34:42;;;;;;;7.72;7.10;;;;;;;;;;5074370;28;20514;-85
2022/06/29 05:37:08;;;;;;;7.28;6.70;;;;;;;;;;5074486;28;20407;-85
2022/06/29 05:39:34;;;;;;;7.43;6.82;;;;;;;;;;5074126;28;20742;-85
2022/06/29 05:42:00;;;;;;;7.25;6.65;;;;;;;;;;5077195;28;20918;-85
2022/06/29 05:44:26;;;;;;;7.45;6.90;;;;;;;;;;5075183;28;20487;-85
2022/06/29 05:46:52;;;;;;;7.93;7.33;;;;;;;;;;5077073;28;20380;-85
2022/06/29 05:49:18;;;;;;;7.10;6.40;;;;;;;;;;5075204;28;20387;-86
2022/06/29 05:51:44;;;;;;;7.20;6.60;;;;;;;;;;5074904;28;20388;-85
2022/06/29 05:54:10;;;;;;;6.60;6.03;;;;;;;;;;5075343;28;20458;-85
2022/06/29 05:56:36;;;;;;;6.00;5.60;;;;;;;;;;5074932;28;20445;-84
2022/06/29 05:59:02;;;;;;;6.47;6.05;;;;;;;;;;5074926;28;20408;-85
2022/06/29 06:01:28;;;;;;;6.68;6.07;;;;;;;;;;5074790;28;20741;-85
2022/06/29 06:03:54;;;;;;;6.40;5.80;;;;;;;;;;5074749;28;20383;-85
2022/06/29 06:06:20;;;;;;;6.40;5.90;;;;;;;;;;5074650;28;20741;-85
2022/06/29 06:08:46;;;;;;;6.85;6.35;;;;;;;;;;5074520;28;20392;-85
2022/06/29 06:11:12;;;;;;;7.60;7.00;;;;;;;;;;5073309;28;20422;-85
2022/06/29 06:13:38;;;;;;;7.07;6.50;;;;;;;;;;5074562;28;20379;-85
2022/06/29 06:16:05;;;;;;;6.97;6.55;;;;;;;;;;5073976;28;20398;-85
2022/06/29 06:18:31;;;;;;;6.47;5.97;;;;;;;;;;5074463;28;20904;-85
2022/06/29 06:20:57;;;;;;;6.70;6.20;;;;;;;;;;5074007;28;20406;-85
2022/06/29 06:23:23;;;;;;;6.35;5.85;;;;;;;;;;5073919;28;20407;-85
2022/06/29 06:25:49;;;;;;;7.22;6.65;;;;;;;;;;5074404;28;20387;-85
2022/06/29 06:28:15;;;;;;;7.18;6.68;;;;;;;;;;5073108;28;20384;-84
2022/06/29 06:30:41;;;;;;;6.80;6.30;;;;;;;;;;5074280;28;20378;-85
2022/06/29 06:33:07;;;;;;;7.17;6.57;;;;;;;;;;5074625;28;20477;-85
2022/06/29 06:35:33;;;;;;;7.90;7.38;;;;;;;;;;5074150;28;20467;-85
2022/06/29 06:38:01;;;;;;;7.15;6.60;;;;;;;;;;5074053;28;20493;-85
2022/06/29 06:43:11;;;;;;;7.30;6.70;;;;;;;;;;5073999;28;20875;-85
2022/06/29 06:45:37;;;;;;;7.38;6.80;;;;;;;;;;5073974;28;20376;-85
2022/06/29 06:48:04;;;;;;;8.02;7.50;;;;;;;;;;5072622;28;20376;-85
2022/06/29 06:50:30;;;;;;;7.95;7.35;;;;;;;;;;5073785;28;20396;-85
2022/06/29 06:52:56;;;;;;;7.63;7.03;;;;;;;;;;5073767;28;20437;-84
2022/06/29 06:55:22;;;;;;;7.18;6.60;;;;;;;;;;5073034;28;20388;-84
2022/06/29 06:57:48;;;;;;;7.43;6.80;;;;;;;;;;5073025;28;20422;-85
2022/06/29 07:00:14;;;;;;;8.27;7.50;;;;;;;;;;5072412;28;20446;-84
2022/06/29 07:02:40;;;;;;;8.48;7.88;;;;;;;;;;5070740;28;20758;-84
2022/06/29 07:05:06;;;;;;;8.70;7.95;;;;;;;;;;5071712;28;20462;-84
2022/06/29 07:07:32;;;;;;;7.20;6.70;;;;;;;;;;5072487;28;20376;-85
2022/06/29 07:09:58;;;;;;;7.38;6.68;;;;;;;;;;5072274;28;20386;-85
2022/06/29 07:12:24;;;;;;;8.27;7.55;;;;;;;;;;5072226;28;20375;-85
2022/06/29 07:14:50;;;;;;;6.87;6.23;;;;;;;;;;5072235;28;20856;-85
2022/06/29 07:17:16;;;;;;;7.00;6.50;;;;;;;;;;5071306;28;20395;-85
2022/06/29 07:19:42;;;;;;;8.02;7.43;;;;;;;;;;5073192;28;20406;-85
2022/06/29 07:22:09;;;;;;;9.73;8.63;;;;;;;;;;5070018;28;20390;-85
2022/06/29 07:24:35;;;;;;;9.10;8.30;;;;;;;;;;5072062;28;20429;-85
2022/06/29 07:27:01;;;;;;;9.00;8.10;;;;;;;;;;5070801;28;20376;-84
2022/06/29 07:29:27;;;;;;;8.23;7.63;;;;;;;;;;5071055;28;20441;-85
2022/06/29 07:31:53;;;;;;;7.70;7.10;;;;;;;;;;5070646;28;20387;-85
2022/06/29 07:34:19;;;;;;;7.55;6.85;;;;;;;;;;5069545;28;20379;-85
2022/06/29 07:36:45;;;;;;;6.78;6.28;;;;;;;;;;5070868;28;20861;-85
2022/06/29 07:39:11;;;;;;;7.03;6.43;;;;;;;;;;5073846;28;20410;-85
2022/06/29 07:41:37;;;;;;;7.60;6.85;;;;;;;;;;5069939;28;20375;-85
2022/06/29 07:44:04;;;;;;;8.65;7.68;;;;;;;;;;5070830;28;20380;-85
2022/06/29 07:46:30;;;;;;;6.97;6.45;;;;;;;;;;5073271;28;20753;-84
2022/06/29 07:48:56;;;;;;;8.48;6.82;;;;;;;;;;5070116;28;20403;-85
2022/06/29 07:51:22;;;;;;;7.57;6.65;;;;;;;;;;5070094;28;20387;-85
2022/06/29 07:53:48;;;;;;;8.55;7.75;;;;;;;;;;5069892;28;20389;-85
2022/06/29 07:56:14;;;;;;;7.57;6.82;;;;;;;;;;5069910;28;20379;-85
2022/06/29 07:58:40;;;;;;;7.25;6.55;;;;;;;;;;5070253;28;21107;-86
2022/06/29 08:01:06;;;;;;;5.32;4.93;;;;;;;;;;5070483;28;20394;-86
2022/06/29 08:03:32;;;;;;;8.55;5.70;;;;;;;;;;5070408;28;20387;-85
2022/06/29 08:05:59;;;;;;;5.78;4.82;;;;;;;;;;5069799;28;20399;-86
2022/06/29 08:08:25;;;;;;;6.00;5.50;;;;;;;;;;5070304;28;20466;-85
2022/06/29 08:10:51;;;;;;;9.07;5.53;;;;;;;;;;5070253;28;20376;-85
2022/06/29 08:13:17;;;;;;;5.50;4.85;;;;;;;;;;5070013;28;20376;-86
2022/06/29 08:15:45;;;;;;;5.55;5.15;;;;;;;;;;5070234;28;20383;-85
2022/06/29 08:18:11;;;;;;;5.50;5.00;;;;;;;;;;5070283;28;20407;-86
2022/06/29 08:20:38;;;;;;;6.40;4.82;;;;;;;;;;5069777;28;20403;-86
2022/06/29 08:23:04;;;;;;;5.95;5.30;;;;;;;;;;5069482;28;20388;-86
2022/06/29 08:25:31;;;;;;;4.78;4.38;;;;;;;;;;5068749;28;20383;-86
2022/06/29 08:27:57;;;;;;;5.70;4.57;;;;;;;;;;5067565;28;20464;-86
2022/06/29 08:30:23;;;;;;;4.47;4.05;;;;;;;;;;5070011;28;20388;-86
2022/06/29 08:32:50;;;;;;;4.63;4.20;;;;;;;;;;5070387;28;20395;-86
2022/06/29 08:35:17;;;;;;;5.05;4.55;;;;;;;;;;5069920;28;20383;-85
2022/06/29 08:37:44;;;;;;;4.20;3.90;;;;;;;;;;5068740;28;20387;-85
2022/06/29 08:40:11;;;;;;;3.92;3.53;;;;;;;;;;5069838;28;20400;-86
2022/06/29 08:42:37;;;;;;;4.47;4.15;;;;;;;;;;5069947;28;20387;-86
2022/06/29 08:45:07;;;;;;;3.63;3.17;;;;;;;;;;5069971;28;20382;-85
2022/06/29 08:47:33;;;;;;;4.38;4.00;;;;;;;;;;5069769;28;20375;-86
2022/06/29 08:49:59;;;;;;;5.22;4.13;;;;;;;;;;5069691;28;20462;-86
2022/06/29 08:52:26;;;;;;;4.20;3.80;;;;;;;;;;5073861;28;20379;-86
2022/06/29 08:54:53;;;;;;;4.13;3.72;;;;;;;;;;5073908;28;20918;-86
2022/06/29 08:57:19;;;;;;;5.00;3.60;;;;;;;;;;5073952;28;20469;-86
2022/06/29 08:59:45;;;;;;;4.07;3.75;;;;;;;;;;5073716;28;20494;-86
2022/06/29 09:02:12;;;;;;;3.30;3.00;;;;;;;;;;5073680;28;20372;-86
2022/06/29 09:04:38;;;;;;;3.30;3.10;;;;;;;;;;5073979;28;20371;-86
2022/06/29 09:07:04;;;;;;;3.85;3.55;;;;;;;;;;5073380;28;20380;-86
2022/06/29 09:09:30;;;;;;;3.80;3.50;;;;;;;;;;5074652;28;20390;-85
2022/06/29 09:11:56;;;;;;;3.65;3.35;;;;;;;;;;5074839;28;20873;-86
2022/06/29 09:14:23;;;;;;;3.78;3.10;;;;;;;;;;5074391;28;20379;-85
2022/06/29 09:16:49;;;;;;;5.57;3.25;;;;;;;;;;5071795;28;20857;-85
2022/06/29 09:19:16;;;;;;;4.93;4.03;;;;;;;;;;5074214;28;20419;-85
2022/06/29 09:21:52;;;;;;;4.47;3.53;;;;;;;;;;5074197;28;20407;-85
2022/06/29 09:24:18;;;;;;;3.63;3.33;;;;;;;;;;5073177;28;20375;-85
2022/06/29 09:26:49;;;;;;;3.42;3.20;;;;;;;;;;5075998;28;20376;-86
2022/06/29 09:29:25;;;;;;;3.50;2.90;;;;;;;;;;5073882;28;20384;-86
2022/06/29 09:32:17;;;;;;;3.28;2.97;;;;;;;;;;5075471;28;20421;-85
2022/06/29 09:34:50;;;;;;;3.80;2.77;;;;;;;;;;5071743;28;20928;-85
2022/06/29 09:37:17;;;;;;;4.30;3.40;;;;;;;;;;5071564;28;20415;-86
2022/06/29 09:39:45;;;;;;;3.70;2.58;;;;;;;;;;5073187;28;20450;-85
2022/06/29 09:42:12;;;;;;;4.20;2.67;;;;;;;;;;5074045;28;20399;-85
2022/06/29 09:44:38;;;;;;;3.50;2.50;;;;;;;;;;5074060;28;20710;-85
2022/06/29 09:47:09;;;;;;;3.00;2.37;;;;;;;;;;5073969;28;20382;-86
2022/06/29 09:49:36;;;;;;;3.33;2.60;;;;;;;;;;5073931;28;20398;-86
2022/06/29 09:52:03;;;;;;;3.80;2.70;;;;;;;;;;5077630;28;20735;-86
2022/06/29 09:54:38;;;;;;;3.05;2.72;;;;;;;;;;5073100;28;20379;-85
2022/06/29 09:57:05;;;;;;;5.72;2.60;;;;;;;;;;5073705;28;20388;-85
2022/06/29 10:02:34;;;;;;;3.57;3.20;;;;;;;;;;5073576;28;20456;-84
2022/06/29 10:05:16;;;;;;;4.63;2.72;;;;;;;;;;5073580;28;20431;-85
2022/06/29 10:07:46;;;;;;;3.42;2.78;;;;;;;;;;5073270;28;20383;-85
2022/06/29 10:10:13;;;;;;;3.10;2.83;;;;;;;;;;5073593;28;20387;-85
2022/06/29 10:15:49;;;;;;;3.28;2.97;;;;;;;;;;5073612;28;20794;-85
2022/06/29 10:18:18;;;;;;;3.70;2.55;;;;;;;;;;5073060;28;20970;-85
2022/06/29 10:20:48;;;;;;;3.38;2.90;;;;;;;;;;5073007;28;20466;-84
2022/06/29 10:23:32;;;;;;;2.65;2.45;;;;;;;;;;5073154;28;20410;-85
2022/06/29 10:26:01;;;;;;;3.90;2.97;;;;;;;;;;5074106;28;20912;-84
2022/06/29 10:28:27;;;;;;;3.75;3.00;;;;;;;;;;5074396;28;20490;-85
2022/06/29 10:30:54;;;;;;;3.60;2.40;;;;;;;;;;5073917;28;20892;-85
2022/06/29 10:33:29;;;;;;;2.45;2.25;;;;;;;;;;5074529;28;20376;-85
2022/06/29 10:36:05;;;;;;;2.90;2.50;;;;;;;;;;5074409;28;20924;-85
2022/06/29 10:38:32;;;;;;;3.50;3.20;;;;;;;;;;5074369;28;20399;-84
2022/06/29 10:41:09;;;;;;;3.60;3.30;;;;;;;;;;5073536;28;20415;-84
2022/06/29 10:43:38;;;;;;;3.80;2.72;;;;;;;;;;5074050;28;20422;-84
2022/06/29 10:46:04;;;;;;;2.72;2.50;;;;;;;;;;5074221;28;20376;-84
2022/06/29 10:48:31;;;;;;;3.10;2.57;;;;;;;;;;5074006;28;20429;-84
2022/06/29 10:50:58;;;;;;;3.42;2.53;;;;;;;;;;5073954;28;20376;-84
2022/06/29 10:53:24;;;;;;;3.28;2.22;;;;;;;;;;5073895;28;20371;-84
2022/06/29 10:55:52;;;;;;;3.60;3.17;;;;;;;;;;5073925;28;20470;-84
2022/06/29 10:58:20;;;;;;;3.95;3.03;;;;;;;;;;5073825;28;20375;-85
2022/06/29 11:00:47;;;;;;;3.30;2.90;;;;;;;;;;5073671;28;20412;-84
2022/06/29 11:03:15;;;;;;;4.28;2.60;;;;;;;;;;5073789;28;20380;-85
2022/06/29 11:14:01;;;;;;;2.50;2.30;;;;;;;;;;5072767;28;20914;-85
2022/06/29 11:16:27;;;;;;;3.60;2.45;;;;;;;;;;5073247;28;20375;-84
2022/06/29 11:18:57;;;;;;;3.97;2.45;;;;;;;;;;5073269;28;20404;-85
2022/06/29 11:21:23;;;;;;;2.30;2.10;;;;;;;;;;5073184;28;20479;-85
2022/06/29 11:23:55;;;;;;;2.40;2.00;;;;;;;;;;5073266;28;20376;-85
2022/06/29 11:26:23;;;;;;;4.30;2.40;;;;;;;;;;5073453;28;20391;-85
2022/06/29 11:28:49;;;;;;;3.40;2.20;;;;;;;;;;5075623;28;20379;-85
2022/06/29 11:31:15;;;;;;;3.22;2.10;;;;;;;;;;5063801;28;20391;-85
2022/06/29 11:33:45;;;;;;;2.90;1.85;;;;;;;;;;5073101;28;20474;-85
2022/06/29 11:36:12;;;;;;;4.85;2.10;;;;;;;;;;5072058;28;20421;-85
2022/06/29 11:38:42;;;;;;;2.60;1.90;;;;;;;;;;5071286;28;20375;-85
2022/06/29 11:41:11;;;;;;;4.13;1.90;;;;;;;;;;5068646;28;20860;-85
2022/06/29 11:43:38;;;;;;;2.95;1.83;;;;;;;;;;5071677;28;20710;-85
2022/06/29 11:46:04;;;;;;;2.60;1.90;;;;;;;;;;5072149;28;20379;-85
2022/06/29 11:48:31;;;;;;;2.72;1.83;;;;;;;;;;5071577;28;20371;-85
2022/06/29 11:50:57;;;;;;;2.83;2.13;;;;;;;;;;5072702;28;20399;-85
2022/06/29 11:54:01;;;;;;;4.43;2.00;;;;;;;;;;5072995;28;20840;-85
2022/06/29 11:56:28;;;;;;;3.55;2.00;;;;;;;;;;5030944;28;20391;-86
2022/06/29 11:58:57;;;;;;;3.17;1.70;;;;;;;;;;5053798;28;20500;-86
2022/06/29 12:01:24;;;;;;;1.92;1.73;;;;;;;;;;5071196;28;20380;-86
2022/06/29 12:03:51;;;;;;;2.65;1.60;;;;;;;;;;5071405;28;20880;-86
2022/06/29 12:06:17;;;;;;;2.22;1.80;;;;;;;;;;5071432;28;20458;-86
2022/06/29 12:08:44;;;;;;;3.25;2.03;;;;;;;;;;5071202;28;20386;-86
2022/06/29 12:11:10;;;;;;;2.80;1.90;;;;;;;;;;5070994;28;20935;-86
2022/06/29 12:13:36;;;;;;;2.72;1.92;;;;;;;;;;5071025;28;20479;-86
2022/06/29 12:16:02;;;;;;;3.22;1.85;;;;;;;;;;5070746;28;20391;-86
2022/06/29 12:18:28;;;;;;;4.47;1.90;;;;;;;;;;5071117;28;20387;-86
2022/06/29 12:20:54;;;;;;;4.03;1.80;;;;;;;;;;5070655;28;20380;-87
2022/06/29 12:23:20;;;;;;;2.03;1.80;;;;;;;;;;5071101;28;21174;-86
2022/06/29 12:25:46;;;;;;;2.33;1.85;;;;;;;;;;5071445;28;20387;-86
2022/06/29 12:28:12;;;;;;;3.47;1.92;;;;;;;;;;5071565;28;20387;-85
2022/06/29 12:30:38;;;;;;;2.50;1.60;;;;;;;;;;5071945;28;20387;-86
2022/06/29 12:33:09;;;;;;;3.72;1.90;;;;;;;;;;5071370;28;20857;-85
2022/06/29 12:35:35;;;;;;;2.10;1.65;;;;;;;;;;5071065;28;20383;-86
2022/06/29 12:38:01;;;;;;;2.42;1.77;;;;;;;;;;5070890;28;20437;-85
2022/06/29 12:40:28;;;;;;;2.72;1.88;;;;;;;;;;5070807;28;20425;-86
2022/06/29 12:42:53;;;;;;;3.95;1.60;;;;;;;;;;5070932;28;20391;-86
2022/06/29 12:45:20;;;;;;;4.20;2.00;;;;;;;;;;5070700;28;20376;-86
2022/06/29 12:47:46;;;;;;;3.83;1.70;;;;;;;;;;5069681;28;20430;-86
2022/06/29 12:50:12;;;;;;;2.72;1.63;;;;;;;;;;5070851;28;20380;-86
2022/06/29 12:52:42;;;;;;;2.30;1.42;;;;;;;;;;5070334;28;20811;-86
2022/06/29 12:55:11;;;;;;;2.97;1.70;;;;;;;;;;5070790;28;20745;-86
2022/06/29 12:57:37;;;;;;;2.25;1.63;;;;;;;;;;5070849;28;20892;-85
2022/06/29 13:00:03;;;;;;;3.55;1.75;;;;;;;;;;5059206;28;20411;-85
2022/06/29 13:02:30;;;;;;;2.17;1.63;;;;;;;;;;5061656;28;21095;-86
2022/06/29 13:04:56;;;;;;;1.90;1.65;;;;;;;;;;5064076;28;20441;-86
2022/06/29 13:07:29;;;;;;;2.17;1.70;;;;;;;;;;5070310;28;20379;-85
2022/06/29 13:09:55;;;;;;;2.08;1.48;;;;;;;;;;5067741;28;20376;-86
2022/06/29 13:12:22;;;;;;;6.38;1.88;;;;;;;;;;5063411;28;20392;-85
2022/06/29 13:14:49;;;;;;;1.87;1.63;;;;;;;;;;5063653;28;20932;-86
2022/06/29 13:17:15;;;;;;;3.10;1.75;;;;;;;;;;5062164;28;20458;-85
2022/06/29 13:19:41;;;;;;;3.42;1.75;;;;;;;;;;5060635;28;20482;-85
2022/06/29 13:22:07;;;;;;;4.50;1.58;;;;;;;;;;5070573;28;20505;-86
2022/06/29 13:24:34;;;;;;;2.72;1.67;;;;;;;;;;5065911;28;20387;-85
2022/06/29 13:27:00;;;;;;;3.03;1.50;;;;;;;;;;5072876;28;20384;-85
2022/06/29 13:29:26;;;;;;;2.85;1.60;;;;;;;;;;5069769;28;20437;-86
2022/06/29 13:31:53;;;;;;;2.50;1.75;;;;;;;;;;5069254;28;20886;-85
2022/06/29 13:34:19;;;;;;;5.00;2.10;;;;;;;;;;5066753;28;20892;-86
2022/06/29 13:36:45;;;;;;;6.30;2.20;;;;;;;;;;5070597;28;20376;-85
2022/06/29 13:39:11;;;;;;;4.18;2.05;;;;;;;;;;5074304;28;20410;-86
2022/06/29 13:41:37;;;;;;;4.93;2.20;;;;;;;;;;5075510;28;20380;-86
2022/06/29 13:44:03;;;;;;;2.28;1.95;;;;;;;;;;5073403;28;20379;-86
2022/06/29 13:46:29;;;;;;;5.03;2.10;;;;;;;;;;5071302;28;20434;-85
2022/06/29 13:48:55;;;;;;;1.95;1.85;;;;;;;;;;5071837;28;20402;-86
2022/06/29 13:51:21;;;;;;;7.35;2.20;;;;;;;;;;5073874;28;20746;-85
2022/06/29 13:53:47;;;;;;;4.70;2.00;;;;;;;;;;5074567;28;20466;-86
2022/06/29 13:56:13;;;;;;;6.18;2.00;;;;;;;;;;5073635;28;20772;-85
2022/06/29 13:58:39;;;;;;;4.53;1.80;;;;;;;;;;5073843;28;20942;-85
2022/06/29 14:01:05;;;;;;;2.90;1.90;;;;;;;;;;5074138;28;20384;-85
2022/06/29 14:03:32;;;;;;;2.55;1.70;;;;;;;;;;5074045;28;20840;-86
2022/06/29 14:05:58;;;;;;;2.90;1.83;;;;;;;;;;5074034;28;20388;-86
2022/06/29 14:08:24;;;;;;;5.70;1.80;;;;;;;;;;5074778;28;20868;-85
2022/06/29 14:10:50;;;;;;;2.75;1.85;;;;;;;;;;5073893;28;20384;-86
2022/06/29 14:13:16;;;;;;;3.10;1.85;;;;;;;;;;5074777;28;20376;-84
2022/06/29 14:15:43;;;;;;;1.85;1.60;;;;;;;;;;5074359;28;20376;-85
2022/06/29 14:18:09;;;;;;;1.77;1.45;;;;;;;;;;5064511;28;20858;-86
2022/06/29 14:20:35;;;;;;;1.80;1.70;;;;;;;;;;5068709;28;20429;-85
2022/06/29 14:23:01;;;;;;;3.10;1.60;;;;;;;;;;5069068;28;20789;-86
2022/06/29 14:25:29;;;;;;;4.67;1.70;;;;;;;;;;5070989;28;20395;-85
2022/06/29 14:27:55;;;;;;;3.53;1.80;;;;;;;;;;5071498;28;20376;-86
2022/06/29 14:30:21;;;;;;;2.03;1.50;;;;;;;;;;5066640;28;20530;-85
2022/06/29 14:32:47;;;;;;;3.55;1.77;;;;;;;;;;5067479;28;20430;-85
2022/06/29 14:35:13;;;;;;;3.03;1.75;;;;;;;;;;5074178;28;20792;-85
2022/06/29 14:37:39;;;;;;;2.88;1.80;;;;;;;;;;5074051;28;20454;-85
2022/06/29 14:40:06;;;;;;;2.72;1.73;;;;;;;;;;5064305;28;20417;-85
2022/06/29 14:42:35;;;;;;;3.45;1.80;;;;;;;;;;5054195;28;20385;-84
2022/06/29 14:45:01;;;;;;;2.67;1.83;;;;;;;;;;5054095;28;20739;-84
2022/06/29 14:47:28;;;;;;;2.45;1.88;;;;;;;;;;5053634;28;20401;-84
2022/06/29 14:49:54;;;;;;;2.97;1.83;;;;;;;;;;5052968;28;20389;-85
2022/06/29 14:52:21;;;;;;;2.20;1.70;;;;;;;;;;5054035;28;20382;-85
2022/06/29 14:54:47;;;;;;;3.58;1.75;;;;;;;;;;5054050;28;20413;-85
2022/06/29 14:57:13;;;;;;;3.53;1.70;;;;;;;;;;5054128;28;20463;-85
2022/06/29 14:59:42;;;;;;;3.60;1.70;;;;;;;;;;5058651;28;20460;-85
2022/06/29 15:02:09;;;;;;;2.80;1.63;;;;;;;;;;5056215;28;20373;-85
2022/06/29 15:04:35;;;;;;;2.70;1.70;;;;;;;;;;5053813;28;20739;-85
2022/06/29 15:07:01;;;;;;;2.53;1.70;;;;;;;;;;5053716;28;20369;-85
2022/06/29 15:09:30;;;;;;;2.10;1.50;;;;;;;;;;5053681;28;20427;-85